Time;durP1;ratioP1;P1;durP2;ratioP2;P2;SDS_P1;SDS_P2;PMS_P1;PMS_P2;Temp;Humidity;BMP_temperature;BMP_pressure;BME280_temperature;BME280_humidity;BME280_pressure;Samples;Min_cycle;Max_cycle;Signal;HPM_P1;HPM_P2
2022/08/24 00:00:13;;;;;;;3.72;1.33;;;19.60;65.80;;;;;;6197531;28;20042;-77
2022/08/24 00:03:15;;;;;;;5.57;1.37;;;19.50;65.90;;;;;;6198002;28;20508;-76
2022/08/24 00:06:19;;;;;;;3.40;1.27;;;19.50;66.20;;;;;;6192203;28;20046;-77
2022/08/24 00:09:20;;;;;;;2.80;1.10;;;19.40;66.30;;;;;;6197433;28;20491;-77
2022/08/24 00:12:23;;;;;;;2.42;1.40;;;19.40;66.60;;;;;;6197048;28;20124;-77
2022/08/24 00:15:26;;;;;;;2.25;1.35;;;19.30;66.80;;;;;;6197658;28;20050;-76
2022/08/24 00:18:28;;;;;;;2.97;1.83;;;19.20;66.90;;;;;;6197134;28;20395;-77
2022/08/24 00:21:30;;;;;;;3.55;1.65;;;19.10;67.10;;;;;;6197743;28;20063;-76
2022/08/24 00:24:32;;;;;;;1.95;1.48;;;19.00;67.60;;;;;;6197007;28;20442;-77
2022/08/24 00:27:35;;;;;;;2.67;1.52;;;19.00;67.90;;;;;;6191380;28;20046;-76
2022/08/24 00:30:38;;;;;;;3.03;1.40;;;18.90;68.30;;;;;;6173122;28;20042;-76
2022/08/24 00:33:40;;;;;;;4.63;1.55;;;18.90;68.60;;;;;;6173305;28;20053;-76
2022/08/24 00:36:42;;;;;;;4.32;1.50;;;18.80;69.00;;;;;;6186986;28;20050;-78
2022/08/24 00:39:44;;;;;;;2.58;1.58;;;18.70;69.20;;;;;;6196581;28;20050;-76
2022/08/24 00:42:46;;;;;;;2.35;1.80;;;18.70;69.60;;;;;;6196665;28;20046;-77
2022/08/24 00:45:55;;;;;;;3.90;1.92;;;18.60;69.80;;;;;;6197294;28;20405;-77
2022/08/24 00:49:02;;;;;;;5.13;1.80;;;18.60;70.30;;;;;;6196607;28;20547;-76
2022/08/24 00:52:09;;;;;;;3.08;1.63;;;18.60;70.60;;;;;;6196793;28;20046;-76
2022/08/24 00:55:17;;;;;;;2.75;1.40;;;18.50;70.90;;;;;;6196123;28;20039;-76
2022/08/24 00:58:28;;;;;;;6.00;2.10;;;18.50;71.10;;;;;;6195742;28;20046;-77
2022/08/24 01:01:34;;;;;;;2.92;1.95;;;18.50;71.20;;;;;;6197306;28;20054;-76
2022/08/24 01:04:41;;;;;;;3.80;2.10;;;18.50;71.60;;;;;;6196523;28;20058;-76
2022/08/24 01:07:42;;;;;;;8.82;2.70;;;18.50;72.10;;;;;;6198141;28;20526;-77
2022/08/24 01:10:48;;;;;;;4.40;1.77;;;18.40;72.30;;;;;;6200863;28;20177;-76
2022/08/24 01:13:52;;;;;;;2.78;2.17;;;18.40;72.60;;;;;;6201581;28;20054;-76
2022/08/24 01:20:15;;;;;;;5.57;1.95;;;18.40;73.20;;;;;;6200701;28;20129;-77
2022/08/24 01:23:32;;;;;;;5.35;1.85;;;18.40;73.60;;;;;;6200490;28;20050;-76
2022/08/24 01:26:38;;;;;;;4.35;2.15;;;18.30;74.30;;;;;;6200684;28;20497;-77
2022/08/24 01:29:42;;;;;;;2.55;1.85;;;18.30;74.30;;;;;;6200821;28;20054;-76
2022/08/24 01:32:53;;;;;;;8.93;2.75;;;18.20;74.50;;;;;;6200721;28;20050;-76
2022/08/24 01:36:01;;;;;;;9.60;2.42;;;18.30;74.70;;;;;;6200335;28;20058;-76
2022/08/24 01:39:09;;;;;;;4.38;2.45;;;18.30;75.00;;;;;;6200282;28;20050;-77
2022/08/24 01:42:13;;;;;;;5.25;2.45;;;18.20;75.20;;;;;;6200299;28;20058;-77
2022/08/24 01:45:14;;;;;;;6.25;2.33;;;18.20;75.60;;;;;;6200444;28;20061;-77
2022/08/24 01:48:18;;;;;;;5.22;2.38;;;18.20;76.20;;;;;;6199935;28;20050;-76
2022/08/24 01:51:20;;;;;;;4.88;1.60;;;18.30;76.50;;;;;;6200197;28;20169;-76
2022/08/24 01:54:24;;;;;;;5.30;2.13;;;18.20;76.70;;;;;;6199861;28;20392;-76
2022/08/24 01:57:26;;;;;;;4.40;2.00;;;18.10;76.90;;;;;;6198650;28;20057;-77
2022/08/24 02:00:29;;;;;;;4.00;2.03;;;18.10;77.00;;;;;;6199900;28;20420;-76
2022/08/24 02:03:31;;;;;;;5.60;2.13;;;18.00;77.10;;;;;;6199651;28;20121;-75
2022/08/24 02:06:33;;;;;;;2.42;1.70;;;18.00;77.10;;;;;;6199836;28;20054;-76
2022/08/24 02:09:37;;;;;;;4.05;2.53;;;17.90;77.10;;;;;;6199738;28;20046;-76
2022/08/24 02:12:41;;;;;;;5.07;1.88;;;17.90;77.10;;;;;;6199155;28;20416;-76
2022/08/24 02:15:43;;;;;;;4.70;2.40;;;17.90;77.40;;;;;;6199341;28;20050;-76
2022/08/24 02:18:45;;;;;;;5.45;2.50;;;17.90;77.40;;;;;;6198810;28;20531;-76
2022/08/24 02:21:47;;;;;;;8.18;2.15;;;17.80;77.60;;;;;;6199683;28;20058;-75
2022/08/24 02:24:50;;;;;;;2.92;1.73;;;17.80;77.60;;;;;;6199168;28;20054;-76
2022/08/24 02:27:52;;;;;;;2.90;2.03;;;17.70;77.90;;;;;;6199093;28;20066;-77
2022/08/24 02:30:54;;;;;;;4.35;1.70;;;17.60;78.10;;;;;;6199070;28;20408;-75
2022/08/24 02:33:55;;;;;;;5.18;2.47;;;17.60;78.10;;;;;;6199644;28;20054;-76
2022/08/24 02:36:58;;;;;;;6.57;2.55;;;17.50;78.20;;;;;;6198577;28;20057;-77
2022/08/24 02:40:02;;;;;;;7.93;2.35;;;17.50;78.40;;;;;;6198687;28;20575;-76
2022/08/24 02:43:04;;;;;;;4.93;1.90;;;17.50;78.80;;;;;;6198214;28;20078;-76
2022/08/24 02:46:06;;;;;;;4.35;2.03;;;17.50;78.80;;;;;;6199278;28;20110;-76
2022/08/24 02:49:08;;;;;;;11.75;2.30;;;17.50;78.80;;;;;;6198394;28;20038;-77
2022/08/24 02:52:10;;;;;;;4.78;1.88;;;17.40;79.00;;;;;;6198834;28;20049;-76
2022/08/24 02:55:16;;;;;;;3.45;2.30;;;17.40;79.30;;;;;;6198610;28;20505;-76
2022/08/24 02:58:18;;;;;;;6.13;2.50;;;17.30;79.20;;;;;;6196893;28;20407;-76
2022/08/24 03:01:20;;;;;;;4.53;2.55;;;17.20;79.50;;;;;;6198721;28;20058;-77
2022/08/24 03:04:22;;;;;;;3.60;2.33;;;17.20;79.80;;;;;;6198201;28;20069;-76
2022/08/24 03:07:23;;;;;;;3.63;2.15;;;17.20;80.10;;;;;;6198033;28;20046;-75
2022/08/24 03:10:26;;;;;;;4.32;2.28;;;17.20;80.00;;;;;;6198210;28;20051;-76
2022/08/24 03:13:29;;;;;;;3.17;2.72;;;17.10;80.10;;;;;;6198601;28;20050;-76
2022/08/24 03:16:32;;;;;;;4.60;2.35;;;17.10;80.30;;;;;;6198000;28;20519;-76
2022/08/24 03:19:33;;;;;;;3.45;2.28;;;17.10;80.20;;;;;;6197970;28;20061;-76
2022/08/24 03:22:35;;;;;;;4.65;2.25;;;17.00;80.60;;;;;;6197897;28;20053;-77
2022/08/24 03:25:39;;;;;;;2.72;1.95;;;16.90;81.20;;;;;;6198299;28;20065;-77
2022/08/24 03:28:41;;;;;;;4.18;2.50;;;16.90;81.30;;;;;;6197596;28;20046;-75
2022/08/24 03:31:43;;;;;;;4.03;2.22;;;16.80;81.50;;;;;;6197489;28;20047;-75
2022/08/24 03:34:45;;;;;;;5.60;2.13;;;16.80;81.70;;;;;;6197841;28;20432;-76
2022/08/24 03:37:48;;;;;;;7.13;2.40;;;16.90;81.90;;;;;;6197697;28;20054;-78
2022/08/24 03:40:51;;;;;;;8.88;2.35;;;16.90;81.80;;;;;;6197461;28;20042;-76
2022/08/24 03:43:54;;;;;;;2.95;1.90;;;16.80;82.00;;;;;;6197181;28;20526;-76
2022/08/24 03:46:56;;;;;;;3.75;2.45;;;16.90;82.00;;;;;;6197610;28;20053;-75
2022/08/24 03:49:58;;;;;;;4.80;2.25;;;16.90;82.10;;;;;;6197932;28;20057;-77
2022/08/24 03:53:01;;;;;;;6.82;2.38;;;16.80;82.30;;;;;;6197261;28;20112;-77
2022/08/24 03:56:04;;;;;;;3.67;2.78;;;16.80;82.20;;;;;;6197039;28;20527;-76
2022/08/24 03:59:08;;;;;;;3.80;2.28;;;16.70;82.00;;;;;;6195784;28;20548;-77
2022/08/24 04:02:10;;;;;;;3.78;2.13;;;16.70;82.20;;;;;;6197516;28;20513;-76
2022/08/24 04:05:13;;;;;;;3.05;2.40;;;16.70;82.30;;;;;;6196917;28;20049;-77
2022/08/24 04:08:14;;;;;;;5.97;2.35;;;16.70;82.70;;;;;;6196736;28;20048;-77
2022/08/24 04:11:19;;;;;;;3.60;2.63;;;16.60;82.90;;;;;;6197402;28;20042;-76
2022/08/24 04:14:21;;;;;;;4.22;2.55;;;16.60;83.20;;;;;;6197225;28;20057;-77
2022/08/24 04:17:23;;;;;;;4.95;2.40;;;16.60;83.50;;;;;;6197642;28;20055;-77
2022/08/24 04:20:25;;;;;;;6.07;2.40;;;16.60;83.60;;;;;;6196725;28;20047;-78
2022/08/24 04:23:26;;;;;;;6.55;2.08;;;16.60;83.80;;;;;;6197836;28;20042;-76
2022/08/24 04:26:31;;;;;;;5.13;2.67;;;16.50;83.80;;;;;;6196568;28;20050;-77
2022/08/24 04:29:34;;;;;;;14.30;2.53;;;16.50;84.10;;;;;;6197124;28;20054;-77
2022/08/24 04:32:36;;;;;;;4.47;2.50;;;16.60;84.30;;;;;;6196957;28;20077;-75
2022/08/24 04:35:39;;;;;;;2.17;1.90;;;16.60;84.10;;;;;;6196877;28;20188;-77
2022/08/24 04:38:40;;;;;;;4.28;2.88;;;16.60;83.80;;;;;;6196684;28;20050;-77
2022/08/24 04:41:43;;;;;;;3.25;2.30;;;16.60;83.70;;;;;;6199043;28;20058;-78
2022/08/24 04:44:45;;;;;;;8.40;2.70;;;16.70;83.60;;;;;;6201349;28;20057;-77
2022/08/24 04:47:47;;;;;;;6.93;3.30;;;16.80;83.30;;;;;;6201298;28;20531;-76
2022/08/24 04:50:49;;;;;;;7.38;2.42;;;16.90;83.20;;;;;;6201318;28;20416;-76
2022/08/24 04:53:51;;;;;;;7.97;3.40;;;17.00;82.90;;;;;;6201705;28;20054;-76
2022/08/24 04:56:54;;;;;;;5.88;2.70;;;17.10;83.10;;;;;;6201288;28;20050;-77
2022/08/24 04:59:56;;;;;;;4.32;2.17;;;17.20;82.50;;;;;;6199823;28;20049;-77
2022/08/24 05:02:58;;;;;;;3.65;2.22;;;17.40;82.20;;;;;;6200710;28;20444;-76
2022/08/24 05:06:00;;;;;;;3.92;2.58;;;17.50;81.30;;;;;;6201404;28;20046;-76
2022/08/24 05:09:04;;;;;;;3.55;2.47;;;17.70;81.00;;;;;;6200245;28;20125;-77
2022/08/24 05:12:08;;;;;;;13.95;2.08;;;17.80;80.30;;;;;;6200879;28;20065;-76
2022/08/24 05:15:11;;;;;;;3.63;2.47;;;17.90;80.00;;;;;;6200680;28;20046;-76
2022/08/24 05:18:14;;;;;;;7.53;2.15;;;18.10;79.70;;;;;;6201260;28;20070;-77
2022/08/24 05:21:18;;;;;;;4.93;2.33;;;18.10;79.20;;;;;;6200932;28;20046;-77
2022/08/24 05:24:20;;;;;;;4.25;2.50;;;18.30;78.80;;;;;;6200362;28;20496;-77
2022/08/24 05:27:23;;;;;;;4.05;1.65;;;18.30;78.40;;;;;;6200322;28;20053;-77
2022/08/24 05:30:25;;;;;;;5.53;2.35;;;18.40;78.10;;;;;;6200883;28;20053;-76
2022/08/24 05:33:27;;;;;;;4.18;2.35;;;18.50;77.70;;;;;;6200990;28;20436;-76
2022/08/24 05:36:30;;;;;;;3.90;1.88;;;18.70;77.30;;;;;;6200242;28;20431;-75
2022/08/24 05:39:32;;;;;;;4.03;2.38;;;18.90;76.60;;;;;;6199914;28;20052;-76
2022/08/24 05:42:36;;;;;;;4.95;2.22;;;19.00;76.10;;;;;;6200144;28;20046;-77
2022/08/24 05:45:41;;;;;;;3.55;2.05;;;19.10;75.80;;;;;;6200488;28;20050;-76
2022/08/24 05:48:43;;;;;;;7.15;2.30;;;19.10;75.50;;;;;;6200016;28;20412;-76
2022/08/24 05:51:45;;;;;;;4.85;1.88;;;19.20;75.10;;;;;;6200026;28;20046;-77
2022/08/24 05:54:52;;;;;;;4.40;2.10;;;19.20;75.10;;;;;;6199309;28;20042;-76
2022/08/24 05:57:56;;;;;;;4.60;2.43;;;19.30;75.00;;;;;;6200511;28;20050;-75
2022/08/24 06:00:58;;;;;;;4.07;1.80;;;19.60;74.40;;;;;;6198628;28;20046;-77
2022/08/24 06:04:00;;;;;;;10.80;2.40;;;19.90;73.50;;;;;;6199108;28;20046;-75
2022/08/24 06:07:02;;;;;;;22.52;3.13;;;20.30;72.30;;;;;;6199492;28;20525;-77
2022/08/24 06:10:04;;;;;;;8.77;2.38;;;20.60;71.50;;;;;;6199852;28;20050;-76
2022/08/24 06:13:08;;;;;;;6.22;2.22;;;20.80;70.80;;;;;;6199327;28;20046;-77
2022/08/24 06:16:13;;;;;;;5.50;2.15;;;21.00;70.10;;;;;;6199735;28;20051;-77
2022/08/24 06:19:17;;;;;;;6.13;2.30;;;21.10;69.70;;;;;;6199006;28;20042;-76
2022/08/24 06:22:19;;;;;;;13.50;2.33;;;21.30;69.50;;;;;;6199406;28;20054;-77
2022/08/24 06:28:41;;;;;;;4.60;2.60;;;21.80;68.10;;;;;;6209569;23;20070;-79
2022/08/24 06:31:45;;;;;;;8.90;2.40;;;22.40;66.80;;;;;;6176956;28;20424;-79
2022/08/24 06:34:47;;;;;;;3.97;2.08;;;23.10;65.30;;;;;;6177385;28;20442;-79
2022/08/24 06:37:49;;;;;;;9.80;2.70;;;23.90;63.90;;;;;;6177654;28;20058;-79
2022/08/24 06:40:51;;;;;;;12.95;2.72;;;24.70;61.60;;;;;;6177123;28;20398;-78
2022/08/24 06:43:54;;;;;;;6.88;2.78;;;25.70;59.40;;;;;;6175858;28;20074;-77
2022/08/24 06:46:55;;;;;;;3.92;2.53;;;27.00;55.90;;;;;;6176095;28;20051;-78
2022/08/24 06:49:59;;;;;;;3.83;1.88;;;28.10;52.60;;;;;;6176636;28;20046;-78
2022/08/24 06:53:01;;;;;;;5.03;2.33;;;28.70;50.20;;;;;;6175886;28;20047;-78
2022/08/24 06:56:03;;;;;;;5.38;1.90;;;29.10;48.90;;;;;;6176034;28;20047;-77
2022/08/24 06:59:06;;;;;;;10.48;2.30;;;29.30;47.50;;;;;;6175786;28;20058;-77
2022/08/24 07:02:09;;;;;;;6.03;1.83;;;29.50;47.80;;;;;;6175974;28;20115;-78
2022/08/24 07:05:10;;;;;;;4.53;1.83;;;29.90;46.20;;;;;;6176265;28;20051;-82
2022/08/24 07:08:12;;;;;;;2.30;1.45;;;30.20;45.70;;;;;;6143732;28;20058;-82
2022/08/24 07:11:16;;;;;;;4.68;1.70;;;30.20;45.00;;;;;;6176100;28;20464;-82
2022/08/24 07:14:20;;;;;;;6.10;1.80;;;30.00;45.60;;;;;;6181097;28;20058;-81
2022/08/24 07:17:22;;;;;;;7.45;1.67;;;29.90;45.70;;;;;;6181302;28;20063;-82
2022/08/24 07:20:24;;;;;;;6.25;1.70;;;30.20;45.60;;;;;;6209919;28;20090;-80
2022/08/24 07:23:26;;;;;;;5.00;2.20;;;30.60;45.00;;;;;;6197849;28;20053;-81
2022/08/24 07:26:30;;;;;;;9.88;1.98;;;31.10;43.60;;;;;;6185448;28;20056;-80
2022/08/24 07:29:33;;;;;;;6.00;1.50;;;31.80;42.60;;;;;;6185391;28;20058;-81
2022/08/24 07:32:35;;;;;;;10.57;2.33;;;32.50;41.80;;;;;;6186345;28;20042;-82
2022/08/24 07:35:37;;;;;;;8.25;1.92;;;33.20;40.60;;;;;;6189075;28;20053;-82
2022/08/24 07:38:38;;;;;;;5.68;1.88;;;33.80;39.40;;;;;;6184242;28;20050;-82
2022/08/24 07:41:43;;;;;;;4.75;1.30;;;34.50;38.40;;;;;;6184413;28;20515;-81
2022/08/24 07:44:46;;;;;;;4.10;1.63;;;35.00;37.10;;;;;;6183054;28;20043;-81
2022/08/24 07:47:47;;;;;;;8.55;1.88;;;35.40;36.90;;;;;;6183606;28;20154;-82
2022/08/24 07:50:49;;;;;;;4.55;1.77;;;35.40;36.60;;;;;;6182605;28;20076;-81
2022/08/24 07:53:51;;;;;;;4.75;1.45;;;35.10;36.60;;;;;;6187764;28;20416;-82
2022/08/24 07:56:52;;;;;;;3.75;1.05;;;34.60;36.90;;;;;;6188479;28;20050;-81
2022/08/24 07:59:55;;;;;;;7.13;1.42;;;34.10;37.20;;;;;;6187378;28;20514;-81
2022/08/24 08:02:57;;;;;;;4.90;1.65;;;33.60;37.40;;;;;;6182241;28;20050;-81
2022/08/24 08:06:01;;;;;;;5.57;1.17;;;32.70;38.40;;;;;;6182463;28;20057;-82
2022/08/24 08:09:04;;;;;;;3.10;1.27;;;32.10;38.90;;;;;;6182240;28;20047;-81
2022/08/24 08:12:06;;;;;;;3.80;1.08;;;31.80;39.60;;;;;;6182678;28;20043;-81
2022/08/24 08:15:10;;;;;;;5.30;1.42;;;31.70;40.00;;;;;;6181780;28;20051;-82
2022/08/24 08:18:13;;;;;;;5.47;1.10;;;31.70;39.60;;;;;;6186076;28;20057;-80
2022/08/24 08:24:30;;;;;;;3.28;1.00;;;31.50;39.80;;;;;;6186293;28;20129;-80
2022/08/24 08:27:33;;;;;;;2.95;1.20;;;31.30;39.90;;;;;;6185502;28;20047;-82
2022/08/24 08:30:36;;;;;;;3.35;1.00;;;31.10;40.40;;;;;;6186511;28;20496;-81
2022/08/24 08:33:39;;;;;;;2.60;0.80;;;31.10;40.30;;;;;;6188247;28;20050;-82
2022/08/24 08:36:41;;;;;;;2.28;1.30;;;31.10;40.50;;;;;;6185977;28;20492;-82
2022/08/24 08:39:44;;;;;;;3.30;1.02;;;31.00;40.60;;;;;;6186786;28;20071;-80
2022/08/24 08:43:00;;;;;;;3.20;1.10;;;31.10;41.00;;;;;;6184839;28;20043;-81
2022/08/24 08:46:21;;;;;;;2.35;0.82;;;31.30;40.40;;;;;;6187117;28;20050;-80
2022/08/24 08:49:42;;;;;;;4.72;1.50;;;31.50;40.30;;;;;;6186891;28;20057;-84
2022/08/24 08:53:15;;;;;;;2.60;1.08;;;31.40;40.20;;;;;;6184402;28;20050;-85
2022/08/24 08:56:23;;;;;;;2.70;1.10;;;31.50;40.50;;;;;;6185020;28;20057;-82
2022/08/24 08:59:44;;;;;;;3.88;1.25;;;31.50;40.10;;;;;;6183424;28;20054;-80
2022/08/24 09:03:26;;;;;;;1.40;1.10;;;31.60;40.40;;;;;;6185038;28;20081;-80
2022/08/24 09:06:42;;;;;;;1.70;0.90;;;31.70;40.00;;;;;;6182761;28;20066;-80
2022/08/24 09:10:02;;;;;;;6.03;1.25;;;31.70;39.90;;;;;;6184894;28;20046;-82
2022/08/24 09:13:20;;;;;;;1.67;0.77;;;31.90;39.60;;;;;;6184471;28;20526;-82
2022/08/24 09:16:43;;;;;;;1.95;1.00;;;32.20;39.40;;;;;;6184446;28;20146;-82
2022/08/24 09:20:05;;;;;;;2.45;1.13;;;32.30;38.20;;;;;;6182269;28;20051;-82
2022/08/24 09:23:13;;;;;;;6.07;0.90;;;32.50;38.30;;;;;;6182586;28;20575;-81
2022/08/24 09:26:25;;;;;;;1.98;1.10;;;32.50;38.50;;;;;;6159197;28;20062;-82
2022/08/24 09:29:45;;;;;;;5.88;2.10;;;32.70;38.20;;;;;;6156227;28;20063;-81
2022/08/24 09:33:04;;;;;;;3.55;0.82;;;32.70;37.50;;;;;;6158174;28;20070;-81
2022/08/24 09:36:11;;;;;;;7.47;1.10;;;32.70;37.50;;;;;;6158942;28;20055;-81
2022/08/24 09:39:30;;;;;;;2.22;1.02;;;33.00;38.00;;;;;;6157637;28;20051;-80
2022/08/24 09:43:02;;;;;;;4.82;1.08;;;33.60;37.90;;;;;;6165921;28;20459;-83
2022/08/24 09:46:40;;;;;;;3.88;1.17;;;33.90;37.70;;;;;;6161907;29;20138;-81
2022/08/24 09:50:09;;;;;;;3.20;0.88;;;34.10;37.30;;;;;;6163966;28;20506;-81
2022/08/24 09:53:40;;;;;;;1.65;0.80;;;34.60;36.70;;;;;;6133620;29;20057;-83
2022/08/24 09:57:01;;;;;;;2.55;0.68;;;35.30;35.60;;;;;;6160302;28;20054;-80
2022/08/24 10:00:12;;;;;;;1.77;0.65;;;35.60;34.30;;;;;;6161084;28;20047;-83
2022/08/24 10:03:30;;;;;;;7.50;1.48;;;35.00;35.30;;;;;;6162493;28;20059;-83
2022/08/24 10:06:45;;;;;;;1.70;1.00;;;34.80;34.90;;;;;;6180085;28;20057;-82
2022/08/24 10:10:13;;;;;;;3.70;0.50;;;34.70;34.40;;;;;;6183926;28;20061;-82
2022/08/24 10:13:24;;;;;;;4.90;0.70;;;34.40;34.30;;;;;;6180546;28;20043;-82
2022/08/24 10:16:37;;;;;;;6.55;0.98;;;34.20;34.00;;;;;;6179373;28;20083;-81
2022/08/24 10:20:07;;;;;;;1.30;0.70;;;33.90;34.70;;;;;;6179262;28;20058;-82
2022/08/24 10:23:36;;;;;;;2.30;0.70;;;33.90;34.40;;;;;;6175850;28;20042;-82
2022/08/24 10:26:58;;;;;;;2.15;0.70;;;33.80;33.70;;;;;;6181323;28;20064;-81
2022/08/24 10:30:20;;;;;;;0.70;0.30;;;33.80;33.00;;;;;;6180808;28;20051;-83
2022/08/24 10:33:25;;;;;;;2.15;0.57;;;33.90;33.30;;;;;;6180493;28;20047;-82
2022/08/24 10:36:48;;;;;;;5.97;0.45;;;34.10;32.20;;;;;;6179250;28;20050;-82
2022/08/24 10:40:14;;;;;;;1.80;0.45;;;34.20;32.10;;;;;;6186222;28;20037;-81
2022/08/24 10:43:47;;;;;;;2.05;0.50;;;34.10;32.00;;;;;;6203794;28;20086;-81
2022/08/24 10:46:53;;;;;;;3.88;0.80;;;34.40;32.00;;;;;;6163676;28;20051;-82
2022/08/24 10:50:22;;;;;;;1.27;0.30;;;34.60;32.10;;;;;;6161772;28;20058;-83
2022/08/24 10:53:26;;;;;;;2.88;0.70;;;34.80;32.90;;;;;;6160407;28;20043;-82
2022/08/24 10:56:42;;;;;;;3.40;0.65;;;35.20;31.30;;;;;;6159231;28;20050;-82
2022/08/24 10:59:54;;;;;;;4.85;1.00;;;35.30;30.90;;;;;;6158459;28;20517;-79
2022/08/24 11:03:10;;;;;;;2.45;0.77;;;35.20;30.30;;;;;;6158187;28;20129;-81
2022/08/24 11:06:16;;;;;;;3.42;0.40;;;35.10;30.60;;;;;;6174711;28;20054;-82
2022/08/24 11:09:17;;;;;;;8.20;0.50;;;35.30;30.40;;;;;;6179410;28;20055;-80
2022/08/24 11:12:27;;;;;;;2.08;0.65;;;35.30;30.40;;;;;;6176608;28;20053;-78
2022/08/24 11:15:30;;;;;;;1.02;0.70;;;35.10;29.60;;;;;;6182349;28;20053;-79
2022/08/24 11:18:51;;;;;;;0.65;0.50;;;35.00;29.90;;;;;;6182338;28;20501;-81
2022/08/24 11:21:55;;;;;;;1.30;0.43;;;34.80;30.40;;;;;;6181731;28;20057;-80
2022/08/24 11:25:01;;;;;;;3.15;0.60;;;34.80;30.60;;;;;;6181323;28;20058;-80
2022/08/24 11:28:08;;;;;;;2.90;1.48;;;35.00;30.80;;;;;;6179946;28;20046;-79
2022/08/24 11:31:13;;;;;;;1.58;0.55;;;35.10;30.50;;;;;;6182622;28;20135;-79
2022/08/24 11:34:17;;;;;;;5.72;0.65;;;35.20;31.30;;;;;;6178261;28;20065;-81
2022/08/24 11:37:23;;;;;;;2.40;0.90;;;35.40;30.20;;;;;;6180330;28;20061;-81
2022/08/24 11:40:29;;;;;;;2.95;0.60;;;35.80;30.00;;;;;;6180117;28;20141;-80
2022/08/24 11:43:41;;;;;;;2.28;0.52;;;36.20;29.80;;;;;;6178196;28;20051;-82
2022/08/24 11:46:52;;;;;;;0.70;0.43;;;36.40;29.60;;;;;;6178383;28;20050;-81
2022/08/24 11:50:01;;;;;;;3.17;0.70;;;36.60;29.30;;;;;;6179458;28;20050;-81
2022/08/24 11:53:12;;;;;;;1.73;0.50;;;36.60;29.20;;;;;;6177768;28;20050;-80
2022/08/24 11:56:22;;;;;;;2.28;0.75;;;36.60;29.50;;;;;;6178359;28;20472;-81
2022/08/24 11:59:36;;;;;;;3.42;0.70;;;37.20;29.10;;;;;;6178229;28;20050;-81
2022/08/24 12:02:51;;;;;;;2.67;0.60;;;36.90;29.00;;;;;;6178436;28;20524;-80
2022/08/24 12:05:58;;;;;;;2.63;0.80;;;36.50;29.50;;;;;;6178706;28;20055;-78
2022/08/24 12:09:05;;;;;;;1.88;0.70;;;36.20;29.70;;;;;;6176620;28;20047;-79
2022/08/24 12:12:18;;;;;;;1.45;0.70;;;36.00;29.70;;;;;;6177300;28;20042;-78
2022/08/24 12:15:33;;;;;;;3.53;1.05;;;35.50;30.00;;;;;;6177325;28;20047;-80
2022/08/24 12:18:47;;;;;;;1.38;0.60;;;35.30;30.40;;;;;;6177376;28;20140;-80
2022/08/24 12:21:54;;;;;;;4.38;0.95;;;35.40;30.70;;;;;;6177538;28;20051;-78
2022/08/24 12:24:59;;;;;;;2.92;0.52;;;35.70;30.50;;;;;;6177594;28;20073;-80
2022/08/24 12:28:01;;;;;;;5.57;1.02;;;35.70;30.30;;;;;;6209640;22;20396;-78
2022/08/24 12:31:09;;;;;;;2.55;0.65;;;35.70;30.40;;;;;;6207860;28;20053;-79
2022/08/24 12:34:17;;;;;;;3.10;0.60;;;35.40;30.50;;;;;;6211036;28;20046;-79
2022/08/24 12:37:23;;;;;;;3.05;0.60;;;35.50;30.70;;;;;;6209611;28;20431;-79
2022/08/24 12:40:30;;;;;;;2.90;0.73;;;35.70;30.70;;;;;;6210629;28;20050;-80
2022/08/24 12:43:39;;;;;;;1.55;0.82;;;36.00;30.70;;;;;;6202598;28;20050;-80
2022/08/24 12:46:43;;;;;;;3.65;0.60;;;36.20;30.50;;;;;;6189123;28;20042;-80
2022/08/24 12:49:52;;;;;;;0.70;0.40;;;36.30;30.00;;;;;;6188835;28;20046;-79
2022/08/24 12:53:16;;;;;;;3.70;0.73;;;36.20;30.00;;;;;;6179745;28;20054;-79
2022/08/24 12:56:53;;;;;;;3.60;0.85;;;36.20;30.00;;;;;;6173312;28;20416;-78
2022/08/24 12:59:57;;;;;;;5.22;0.75;;;36.10;30.00;;;;;;6179793;28;20047;-79
2022/08/24 13:03:02;;;;;;;1.48;0.50;;;36.00;29.90;;;;;;6179151;28;20061;-78
2022/08/24 13:06:09;;;;;;;3.03;0.52;;;35.40;30.40;;;;;;6184825;28;20672;-78
2022/08/24 13:09:25;;;;;;;2.08;0.47;;;35.10;30.30;;;;;;6194728;28;20050;-77
2022/08/24 13:12:51;;;;;;;4.10;0.90;;;35.00;30.30;;;;;;6194195;28;20038;-78
2022/08/24 13:16:01;;;;;;;2.40;0.75;;;34.70;30.90;;;;;;6194816;28;20524;-77
2022/08/24 13:19:16;;;;;;;9.63;1.00;;;34.50;30.90;;;;;;6206768;28;20537;-77
2022/08/24 13:22:49;;;;;;;0.95;0.60;;;34.10;31.10;;;;;;6227599;28;20050;-78
2022/08/24 13:25:57;;;;;;;2.97;0.50;;;34.20;31.10;;;;;;6227606;28;20046;-77
2022/08/24 13:29:00;;;;;;;4.93;0.88;;;34.40;31.00;;;;;;6224637;28;20662;-77
2022/08/24 13:32:02;;;;;;;0.60;0.40;;;34.30;30.60;;;;;;6224735;28;20413;-76
2022/08/24 13:35:33;;;;;;;3.92;0.82;;;34.50;31.10;;;;;;6224790;28;20064;-76
2022/08/24 13:38:52;;;;;;;3.80;0.52;;;34.60;30.50;;;;;;6224873;28;20054;-77
2022/08/24 13:42:08;;;;;;;2.70;0.57;;;34.40;30.60;;;;;;6222864;28;20050;-77
2022/08/24 13:45:25;;;;;;;1.92;0.60;;;34.50;30.70;;;;;;6223104;28;20060;-78
2022/08/24 13:48:42;;;;;;;5.78;0.75;;;34.80;31.20;;;;;;6228754;28;20053;-77
2022/08/24 13:51:50;;;;;;;0.60;0.35;;;35.00;30.90;;;;;;6224493;28;20042;-78
2022/08/24 13:55:39;;;;;;;1.73;0.40;;;35.30;30.70;;;;;;6223652;28;20042;-77
2022/08/24 13:58:49;;;;;;;1.92;0.80;;;35.80;29.70;;;;;;6192263;28;20046;-78
2022/08/24 14:02:04;;;;;;;3.35;0.50;;;35.60;29.60;;;;;;6226046;28;20045;-78
2022/08/24 14:05:18;;;;;;;3.70;0.45;;;35.20;29.80;;;;;;6228813;28;20052;-78
2022/08/24 14:08:38;;;;;;;1.00;0.50;;;35.00;29.70;;;;;;6208406;28;20046;-78
2022/08/24 14:11:54;;;;;;;1.35;0.77;;;34.80;30.00;;;;;;6200983;28;20049;-80
2022/08/24 14:15:13;;;;;;;2.73;0.60;;;34.70;30.00;;;;;;6211489;28;20046;-79
2022/08/24 14:18:23;;;;;;;1.08;0.40;;;35.00;29.60;;;;;;6230243;28;20410;-80
2022/08/24 14:21:38;;;;;;;6.47;0.77;;;35.60;29.50;;;;;;6233215;28;20042;-80
2022/08/24 14:24:44;;;;;;;1.02;0.40;;;36.20;29.20;;;;;;6230871;28;20056;-81
2022/08/24 14:27:48;;;;;;;3.50;0.70;;;36.70;29.10;;;;;;6231014;28;20088;-79
2022/08/24 14:31:13;;;;;;;1.85;0.85;;;36.90;29.00;;;;;;6232396;28;20042;-79
2022/08/24 14:34:24;;;;;;;0.55;0.32;;;37.00;28.90;;;;;;6232458;28;20068;-80
2022/08/24 14:37:33;;;;;;;2.22;0.40;;;36.90;29.00;;;;;;6206639;28;20046;-79
2022/08/24 14:40:42;;;;;;;2.15;0.50;;;36.70;29.10;;;;;;6224392;28;20046;-80
2022/08/24 14:44:09;;;;;;;3.15;0.40;;;36.50;29.00;;;;;;6208593;28;20056;-80
2022/08/24 14:47:26;;;;;;;1.83;0.75;;;36.40;29.40;;;;;;6211949;28;20046;-81
2022/08/24 14:50:38;;;;;;;2.28;0.73;;;36.50;29.50;;;;;;6228844;28;20056;-81
2022/08/24 14:53:59;;;;;;;1.02;0.25;;;36.70;29.60;;;;;;6230317;28;20045;-80
2022/08/24 14:57:17;;;;;;;0.65;0.30;;;36.90;29.30;;;;;;6230044;28;20060;-80
2022/08/24 15:00:21;;;;;;;3.25;0.70;;;36.70;29.70;;;;;;6228827;28;20046;-80
2022/08/24 15:03:36;;;;;;;2.30;0.57;;;36.50;29.50;;;;;;6228660;28;20053;-79
2022/08/24 15:06:47;;;;;;;2.13;1.10;;;36.20;29.00;;;;;;6229436;28;20052;-80
2022/08/24 15:09:50;;;;;;;1.33;0.60;;;36.20;29.20;;;;;;6222654;28;20065;-77
2022/08/24 15:12:57;;;;;;;2.13;0.35;;;36.10;29.30;;;;;;6216123;28;20133;-80
2022/08/24 15:16:04;;;;;;;1.70;0.40;;;36.00;29.30;;;;;;6209350;28;20133;-80
2022/08/24 15:19:14;;;;;;;3.90;0.63;;;35.90;29.60;;;;;;6205631;28;20054;-80
2022/08/24 15:22:25;;;;;;;3.35;0.45;;;36.20;29.70;;;;;;6202221;28;20046;-78
2022/08/24 15:25:35;;;;;;;4.22;0.40;;;36.20;29.80;;;;;;6199043;28;20055;-79
2022/08/24 15:28:37;;;;;;;2.88;0.43;;;36.00;29.80;;;;;;6200653;28;20050;-78
2022/08/24 15:31:39;;;;;;;1.58;0.70;;;36.00;30.00;;;;;;6205639;28;20044;-78
2022/08/24 15:34:47;;;;;;;0.77;0.40;;;35.70;29.90;;;;;;6230000;28;20045;-78
2022/08/24 15:37:49;;;;;;;4.07;0.43;;;35.50;30.20;;;;;;6224305;28;20058;-78
2022/08/24 15:41:05;;;;;;;2.90;0.50;;;35.40;29.90;;;;;;6222950;28;20504;-79
2022/08/24 15:44:10;;;;;;;4.25;1.08;;;35.20;30.00;;;;;;6215271;28;20043;-79
2022/08/24 15:47:23;;;;;;;3.47;0.70;;;35.10;30.20;;;;;;6200225;28;20050;-77
2022/08/24 15:50:28;;;;;;;4.93;0.90;;;35.00;29.90;;;;;;6205372;28;20061;-79
2022/08/24 15:53:37;;;;;;;0.60;0.32;;;34.80;30.10;;;;;;6203362;28;20050;-79
2022/08/24 15:56:45;;;;;;;1.95;0.80;;;34.70;30.00;;;;;;6203830;28;20053;-79
2022/08/24 15:59:50;;;;;;;3.65;0.68;;;34.60;29.50;;;;;;6202787;28;20523;-80
2022/08/24 16:02:51;;;;;;;3.25;0.50;;;34.20;29.40;;;;;;6201435;28;20046;-80
2022/08/24 16:05:56;;;;;;;6.82;0.63;;;34.00;29.90;;;;;;6203169;28;20046;-80
2022/08/24 16:09:01;;;;;;;0.70;0.40;;;34.00;30.00;;;;;;6202047;28;20054;-79
2022/08/24 16:12:05;;;;;;;0.70;0.40;;;33.80;30.30;;;;;;6205548;28;20049;-79
2022/08/24 16:15:15;;;;;;;3.38;1.10;;;33.60;30.10;;;;;;6201375;28;20052;-80
2022/08/24 16:18:20;;;;;;;2.78;1.02;;;33.50;30.60;;;;;;6201494;28;20053;-80
2022/08/24 16:21:29;;;;;;;1.92;0.47;;;33.40;30.40;;;;;;6222431;28;20050;-78
2022/08/24 16:24:34;;;;;;;1.40;0.35;;;33.30;30.70;;;;;;6202181;28;20412;-76